Time;durP1;ratioP1;P1;durP2;ratioP2;P2;SDS_P1;SDS_P2;PMS_P1;PMS_P2;Temp;Humidity;BMP_temperature;BMP_pressure;BME280_temperature;BME280_humidity;BME280_pressure;Samples;Min_cycle;Max_cycle;Signal;HPM_P1;HPM_P2
2022/10/06 00:00:35;;;;;;;15.83;1.73;;;11.60;59.40;;;;;;4982416;28;46380;-65
2022/10/06 00:03:00;;;;;;;4.03;2.20;;;11.60;59.40;;;;;;4976963;28;46511;-65
2022/10/06 00:05:26;;;;;;;3.63;2.00;;;11.60;59.30;;;;;;4973798;28;48145;-65
2022/10/06 00:07:52;;;;;;;5.83;1.93;;;11.60;59.20;;;;;;4980766;28;46389;-65
2022/10/06 00:10:17;;;;;;;3.93;1.97;;;11.60;59.10;;;;;;4982592;28;45720;-65
2022/10/06 00:12:46;;;;;;;3.73;1.90;;;11.60;59.20;;;;;;4974814;28;46450;-65
2022/10/06 00:15:14;;;;;;;3.67;1.80;;;11.60;59.20;;;;;;4975940;28;46523;-65
2022/10/06 00:17:40;;;;;;;3.37;1.90;;;11.50;59.30;;;;;;4979443;28;46466;-65
2022/10/06 00:20:07;;;;;;;2.33;1.70;;;11.50;59.50;;;;;;4973513;28;46419;-65
2022/10/06 00:22:38;;;;;;;3.20;1.80;;;11.40;59.70;;;;;;4981269;28;46430;-65
2022/10/06 00:25:04;;;;;;;2.77;2.07;;;11.40;59.90;;;;;;4977238;28;46724;-65
2022/10/06 00:27:34;;;;;;;5.10;1.87;;;11.30;60.00;;;;;;4972885;28;46265;-65
2022/10/06 00:30:00;;;;;;;2.60;1.50;;;11.30;60.10;;;;;;4977170;28;45777;-66
2022/10/06 00:32:26;;;;;;;2.90;1.80;;;11.30;60.00;;;;;;4977242;28;46438;-65
2022/10/06 00:34:52;;;;;;;2.97;1.70;;;11.30;60.00;;;;;;4974691;28;48391;-65
2022/10/06 00:37:18;;;;;;;3.03;1.80;;;11.30;60.00;;;;;;4973998;28;46501;-65
2022/10/06 00:39:44;;;;;;;10.97;2.07;;;11.40;59.90;;;;;;4979990;28;46304;-65
2022/10/06 00:42:30;;;;;;;6.10;1.80;;;11.40;59.80;;;;;;4977392;28;46654;-65
2022/10/06 00:45:00;;;;;;;8.40;1.90;;;11.50;59.70;;;;;;4971211;28;46212;-65
2022/10/06 00:47:29;;;;;;;3.40;1.53;;;11.50;59.50;;;;;;4974316;28;46401;-65
2022/10/06 00:49:55;;;;;;;2.87;2.00;;;11.60;59.40;;;;;;4978013;28;46463;-65
2022/10/06 00:52:25;;;;;;;4.03;2.20;;;11.60;59.30;;;;;;4973703;28;46670;-65
2022/10/06 00:54:51;;;;;;;3.40;2.03;;;11.60;59.10;;;;;;4974792;28;46657;-65
2022/10/06 00:57:19;;;;;;;5.10;1.80;;;11.60;59.00;;;;;;4974797;28;46647;-65
2022/10/06 00:59:45;;;;;;;3.47;2.20;;;11.60;58.90;;;;;;4978098;28;46351;-66
2022/10/06 01:02:11;;;;;;;9.53;2.10;;;11.60;58.80;;;;;;4976016;28;46612;-65
2022/10/06 01:04:41;;;;;;;8.73;1.90;;;11.60;58.70;;;;;;4974687;28;46415;-65
2022/10/06 01:07:07;;;;;;;7.70;2.07;;;11.60;58.70;;;;;;4973666;28;46375;-65
2022/10/06 01:09:33;;;;;;;3.60;2.20;;;11.60;58.80;;;;;;4976385;28;46435;-65
2022/10/06 01:12:02;;;;;;;2.90;2.10;;;11.60;58.80;;;;;;4975499;28;45928;-65
2022/10/06 01:14:28;;;;;;;7.17;2.07;;;11.60;58.90;;;;;;4974996;28;46363;-65
2022/10/06 01:17:03;;;;;;;5.00;1.60;;;11.60;58.80;;;;;;4972795;28;46410;-65
2022/10/06 01:19:32;;;;;;;7.53;2.50;;;11.70;58.80;;;;;;4979858;28;45845;-65
2022/10/06 01:22:00;;;;;;;4.70;1.70;;;11.60;58.70;;;;;;4974629;28;46736;-65
2022/10/06 01:24:27;;;;;;;3.33;1.90;;;11.60;58.80;;;;;;4973658;28;46381;-66
2022/10/06 01:26:54;;;;;;;8.67;2.27;;;11.60;58.90;;;;;;4976374;28;46443;-65
2022/10/06 01:29:20;;;;;;;3.30;1.97;;;11.70;58.80;;;;;;4972707;28;46356;-65
2022/10/06 01:31:45;;;;;;;5.80;2.07;;;11.70;58.80;;;;;;4976809;28;46591;-65
2022/10/06 01:34:11;;;;;;;5.30;2.10;;;11.60;58.90;;;;;;4970483;28;46734;-66
2022/10/06 01:36:39;;;;;;;3.33;2.00;;;11.50;59.00;;;;;;4970492;28;46448;-65
2022/10/06 01:39:04;;;;;;;3.60;2.10;;;11.40;59.10;;;;;;4972185;28;45851;-65
2022/10/06 01:41:32;;;;;;;4.40;1.80;;;11.30;59.30;;;;;;4973342;28;46431;-65
2022/10/06 01:43:57;;;;;;;4.63;1.70;;;11.10;59.30;;;;;;4972688;28;46855;-65
2022/10/06 01:46:23;;;;;;;4.30;2.23;;;11.00;59.40;;;;;;4972470;28;46360;-65
2022/10/06 01:48:49;;;;;;;3.47;2.33;;;11.00;59.40;;;;;;4980622;28;46331;-65
2022/10/06 01:51:15;;;;;;;4.50;2.70;;;10.90;59.50;;;;;;4978843;28;46358;-65
2022/10/06 01:53:41;;;;;;;5.40;2.20;;;10.90;59.50;;;;;;4970716;28;46419;-65
2022/10/06 01:56:06;;;;;;;4.50;2.27;;;10.80;59.60;;;;;;4974567;28;46579;-65
2022/10/06 01:58:32;;;;;;;3.60;1.93;;;10.80;59.80;;;;;;4973487;28;46600;-65
2022/10/06 02:01:02;;;;;;;4.93;1.80;;;10.80;59.90;;;;;;4972952;28;46331;-65
2022/10/06 02:03:27;;;;;;;2.70;1.87;;;10.90;60.00;;;;;;4975705;28;46654;-65
2022/10/06 02:05:55;;;;;;;5.57;2.50;;;11.00;59.80;;;;;;4976679;28;45825;-65
2022/10/06 02:08:20;;;;;;;5.10;2.70;;;11.10;59.60;;;;;;4971577;28;45824;-65
2022/10/06 02:10:46;;;;;;;3.90;2.33;;;11.20;59.50;;;;;;4977547;28;45918;-65
2022/10/06 02:13:12;;;;;;;4.13;2.03;;;11.30;59.40;;;;;;4972536;28;46737;-65
2022/10/06 02:15:37;;;;;;;5.53;2.10;;;11.40;59.40;;;;;;4975891;28;46371;-66
2022/10/06 02:18:03;;;;;;;6.57;1.70;;;11.40;59.20;;;;;;4971294;28;46423;-67
2022/10/06 02:20:28;;;;;;;5.03;2.10;;;11.50;59.20;;;;;;4972432;28;46386;-65
2022/10/06 02:22:54;;;;;;;3.50;2.23;;;11.60;59.30;;;;;;4975005;28;46742;-65
2022/10/06 02:25:19;;;;;;;5.70;2.70;;;11.60;59.40;;;;;;4972883;28;46430;-65
2022/10/06 02:27:45;;;;;;;3.80;2.33;;;11.60;59.40;;;;;;4973648;28;46367;-65
2022/10/06 02:30:13;;;;;;;5.70;2.93;;;11.60;59.30;;;;;;4973347;28;46248;-65
2022/10/06 02:32:41;;;;;;;4.60;2.67;;;11.60;59.40;;;;;;4975206;28;47013;-65
2022/10/06 02:35:07;;;;;;;3.87;2.40;;;11.50;59.40;;;;;;4971381;28;46371;-65
2022/10/06 02:37:33;;;;;;;3.10;2.00;;;11.50;59.30;;;;;;4970924;28;46289;-65
2022/10/06 02:39:59;;;;;;;3.47;2.07;;;11.50;59.30;;;;;;4973839;28;46363;-66
2022/10/06 02:42:25;;;;;;;6.20;2.23;;;11.40;59.40;;;;;;4972093;28;46300;-65
2022/10/06 02:44:51;;;;;;;5.80;2.13;;;11.40;59.60;;;;;;4976473;28;46403;-66
2022/10/06 02:47:17;;;;;;;10.60;2.53;;;11.30;59.60;;;;;;4977640;28;46420;-66
2022/10/06 02:49:43;;;;;;;4.87;2.23;;;11.20;60.80;;;;;;4976642;28;46394;-66
2022/10/06 02:52:10;;;;;;;5.20;2.10;;;11.20;59.80;;;;;;4975759;28;46135;-65
2022/10/06 02:54:35;;;;;;;6.60;2.80;;;11.20;59.80;;;;;;4974939;28;46506;-66
2022/10/06 02:57:01;;;;;;;3.73;2.40;;;11.10;59.80;;;;;;4972265;28;46539;-66
2022/10/06 02:59:27;;;;;;;4.97;2.20;;;11.10;59.90;;;;;;4974690;28;46456;-65
2022/10/06 03:01:53;;;;;;;7.63;2.47;;;11.10;59.90;;;;;;4974021;28;46453;-65
2022/10/06 03:04:19;;;;;;;5.13;2.53;;;11.00;59.90;;;;;;4972463;28;45885;-66
2022/10/06 03:06:45;;;;;;;6.10;2.80;;;11.00;61.10;;;;;;4972211;28;46536;-66
2022/10/06 03:09:11;;;;;;;4.00;2.57;;;11.00;60.00;;;;;;4972267;28;46616;-66
2022/10/06 03:11:41;;;;;;;4.03;2.83;;;10.90;60.00;;;;;;4970876;28;46439;-66
2022/10/06 03:14:07;;;;;;;3.53;2.30;;;10.90;60.00;;;;;;4968246;28;46453;-63
2022/10/06 03:16:41;;;;;;;4.57;1.90;;;11.00;60.00;;;;;;4979175;28;46347;-66
2022/10/06 03:19:08;;;;;;;5.57;2.10;;;10.90;60.00;;;;;;4975093;28;46391;-65
2022/10/06 03:21:35;;;;;;;5.03;2.40;;;10.80;60.10;;;;;;4974101;28;47334;-66
2022/10/06 03:24:01;;;;;;;5.00;2.37;;;10.80;60.30;;;;;;4971425;28;45868;-65
2022/10/06 03:26:33;;;;;;;5.73;2.43;;;10.70;60.30;;;;;;4972045;28;46465;-64
2022/10/06 03:28:59;;;;;;;8.37;2.43;;;10.70;60.50;;;;;;4972183;28;46374;-66
2022/10/06 03:31:26;;;;;;;4.03;2.40;;;10.60;60.60;;;;;;4977695;28;46678;-65
2022/10/06 03:33:55;;;;;;;7.97;2.77;;;10.50;60.60;;;;;;4974767;28;46422;-65
2022/10/06 03:36:23;;;;;;;7.33;2.50;;;10.40;60.70;;;;;;4974627;28;46455;-65
2022/10/06 03:38:49;;;;;;;5.70;2.70;;;10.40;60.70;;;;;;4977557;28;46456;-65
2022/10/06 03:41:20;;;;;;;4.70;2.37;;;10.40;60.80;;;;;;4977048;28;46488;-66
2022/10/06 03:43:47;;;;;;;5.00;2.60;;;10.30;60.80;;;;;;4975325;28;46385;-65
2022/10/06 03:46:15;;;;;;;4.20;2.63;;;10.40;60.90;;;;;;4977926;28;45827;-66
2022/10/06 03:48:41;;;;;;;5.30;2.33;;;10.40;60.80;;;;;;4973979;28;46344;-66
2022/10/06 03:51:12;;;;;;;3.30;2.20;;;10.30;60.70;;;;;;4976122;28;46374;-64
2022/10/06 03:53:38;;;;;;;4.23;2.80;;;10.30;60.90;;;;;;4978428;28;46358;-64
2022/10/06 03:56:11;;;;;;;7.37;2.83;;;10.30;60.80;;;;;;4978164;28;46449;-66
2022/10/06 03:58:39;;;;;;;4.07;2.30;;;10.40;60.60;;;;;;4976071;28;46609;-66
2022/10/06 04:01:09;;;;;;;10.90;3.00;;;10.40;60.50;;;;;;4975227;28;47120;-67
2022/10/06 04:03:35;;;;;;;7.50;3.50;;;10.40;60.70;;;;;;4977920;28;46339;-65
2022/10/06 04:06:04;;;;;;;7.20;2.87;;;10.50;60.80;;;;;;4972960;28;46538;-66
2022/10/06 04:08:31;;;;;;;6.60;2.60;;;10.50;60.50;;;;;;4973102;28;46342;-65
2022/10/06 04:11:11;;;;;;;4.63;2.60;;;10.60;60.50;;;;;;4977852;28;46556;-66
2022/10/06 04:13:38;;;;;;;9.13;2.63;;;10.60;60.40;;;;;;4973969;28;46371;-65
2022/10/06 04:16:24;;;;;;;4.70;2.50;;;10.70;60.50;;;;;;4982713;28;45868;-66
2022/10/06 04:18:55;;;;;;;7.33;2.50;;;10.70;60.50;;;;;;4980607;28;46334;-65
2022/10/06 04:21:22;;;;;;;8.60;2.57;;;10.80;60.40;;;;;;4977796;28;46356;-66
2022/10/06 04:23:48;;;;;;;3.23;1.90;;;10.80;60.30;;;;;;4974241;28;46482;-65
2022/10/06 04:26:16;;;;;;;4.93;2.27;;;10.90;60.30;;;;;;4975739;28;46366;-66
2022/10/06 04:28:43;;;;;;;6.70;2.60;;;10.90;60.10;;;;;;4984313;28;46313;-66
2022/10/06 04:31:22;;;;;;;4.43;2.50;;;10.90;60.10;;;;;;4972566;28;47251;-66
2022/10/06 04:33:53;;;;;;;5.13;2.60;;;10.90;60.20;;;;;;4978703;28;46355;-65
2022/10/06 04:36:22;;;;;;;6.73;2.37;;;10.90;60.20;;;;;;4972220;28;46395;-66
2022/10/06 04:38:57;;;;;;;11.23;2.70;;;10.90;60.20;;;;;;4981076;28;46645;-66
2022/10/06 04:41:27;;;;;;;4.20;2.43;;;10.80;60.20;;;;;;4974971;28;46545;-66
2022/10/06 04:43:54;;;;;;;3.97;2.27;;;10.80;60.50;;;;;;4971594;28;46264;-66
2022/10/06 04:46:21;;;;;;;3.70;2.30;;;10.70;60.50;;;;;;4974829;28;46446;-65
2022/10/06 04:48:49;;;;;;;5.57;2.07;;;10.70;60.60;;;;;;4975129;28;46704;-66
2022/10/06 04:51:16;;;;;;;4.07;2.47;;;10.70;60.70;;;;;;4971128;28;46584;-66
2022/10/06 04:53:45;;;;;;;4.90;2.93;;;10.70;60.80;;;;;;4975429;28;46354;-65
2022/10/06 04:56:12;;;;;;;7.00;2.43;;;10.60;60.60;;;;;;4973356;28;46265;-66
2022/10/06 04:58:41;;;;;;;4.60;2.10;;;10.60;60.80;;;;;;4978779;28;46455;-66
2022/10/06 05:01:22;;;;;;;7.73;3.43;;;10.50;60.80;;;;;;4974286;28;46594;-66
2022/10/06 05:03:55;;;;;;;7.70;2.27;;;10.40;60.80;;;;;;4976633;28;46365;-65
2022/10/06 05:06:23;;;;;;;3.90;1.90;;;10.50;60.90;;;;;;4974910;28;46415;-66
2022/10/06 05:08:52;;;;;;;5.03;2.67;;;10.50;60.80;;;;;;4975606;28;46388;-67
2022/10/06 05:11:18;;;;;;;6.23;2.43;;;10.50;60.90;;;;;;4975949;28;46490;-65
2022/10/06 05:13:44;;;;;;;4.23;2.53;;;10.40;60.90;;;;;;4976673;28;45767;-66
2022/10/06 05:16:13;;;;;;;5.70;2.63;;;10.40;60.90;;;;;;4973037;28;46401;-65
2022/10/06 05:18:39;;;;;;;6.63;2.37;;;10.30;60.90;;;;;;4978950;28;46157;-65
2022/10/06 05:21:15;;;;;;;4.43;2.23;;;10.30;61.10;;;;;;4977152;28;46453;-65
2022/10/06 05:23:42;;;;;;;7.00;2.50;;;10.30;61.10;;;;;;4975509;28;46256;-65
2022/10/06 05:26:11;;;;;;;8.80;2.10;;;10.40;61.20;;;;;;4970592;28;46433;-65
2022/10/06 05:28:37;;;;;;;3.90;2.37;;;10.40;61.00;;;;;;4977662;28;46335;-65
2022/10/06 05:31:11;;;;;;;6.90;2.60;;;10.50;60.70;;;;;;4978973;28;46333;-65
2022/10/06 05:33:37;;;;;;;5.30;2.30;;;10.60;60.50;;;;;;4972739;28;46423;-65
2022/10/06 05:36:13;;;;;;;8.90;2.40;;;10.60;60.40;;;;;;4973815;28;46483;-65
2022/10/06 05:38:39;;;;;;;3.50;1.83;;;10.70;60.50;;;;;;4978480;28;46511;-65
2022/10/06 05:41:11;;;;;;;7.60;2.17;;;10.70;60.40;;;;;;4975834;28;46347;-66
2022/10/06 05:43:38;;;;;;;14.47;4.97;;;10.70;60.70;;;;;;4971568;28;46331;-65
2022/10/06 05:46:06;;;;;;;4.67;3.37;;;10.70;60.40;;;;;;4979441;28;45869;-66
2022/10/06 05:48:32;;;;;;;12.47;5.13;;;10.70;60.20;;;;;;4971787;28;45919;-65
2022/10/06 05:50:59;;;;;;;9.53;4.10;;;10.70;60.40;;;;;;4972116;28;46964;-66
2022/10/06 05:53:26;;;;;;;9.50;4.23;;;10.80;60.40;;;;;;4974700;28;46495;-65
2022/10/06 05:56:00;;;;;;;8.80;3.50;;;10.90;60.50;;;;;;4973345;28;46396;-65
2022/10/06 05:58:27;;;;;;;7.40;3.53;;;11.00;60.40;;;;;;4975714;28;46621;-65
2022/10/06 06:00:52;;;;;;;4.00;2.33;;;11.10;60.30;;;;;;4979226;28;46404;-65
2022/10/06 06:03:18;;;;;;;3.70;2.40;;;11.10;60.10;;;;;;4978985;28;46667;-65
2022/10/06 06:05:44;;;;;;;3.60;2.13;;;11.20;60.20;;;;;;4978829;28;45861;-65
2022/10/06 06:08:10;;;;;;;6.40;3.13;;;11.30;60.00;;;;;;4981066;28;46545;-65
2022/10/06 06:10:36;;;;;;;3.80;2.33;;;11.40;59.90;;;;;;4974555;28;47083;-65
2022/10/06 06:13:02;;;;;;;4.77;3.70;;;11.50;59.80;;;;;;4973844;28;46433;-65
2022/10/06 06:18:12;;;;;;;7.37;2.50;;;11.80;59.50;;;;;;4977058;28;46443;-65
2022/10/06 06:20:38;;;;;;;3.67;2.03;;;11.90;59.40;;;;;;4977946;28;48129;-65
2022/10/06 06:23:03;;;;;;;3.90;2.03;;;12.00;59.20;;;;;;4976367;28;45866;-66
2022/10/06 06:25:29;;;;;;;3.53;2.03;;;12.20;59.20;;;;;;4985400;28;45863;-65
2022/10/06 06:27:55;;;;;;;5.27;2.43;;;12.30;58.90;;;;;;4973579;28;46562;-65
2022/10/06 06:30:21;;;;;;;5.00;2.93;;;12.40;58.80;;;;;;4970277;28;46352;-65
2022/10/06 06:32:47;;;;;;;6.40;2.50;;;12.50;59.90;;;;;;4973356;28;46555;-65
2022/10/06 06:35:12;;;;;;;5.00;2.80;;;12.70;58.60;;;;;;4973483;28;46453;-69
2022/10/06 06:37:38;;;;;;;5.40;3.70;;;12.80;58.20;;;;;;4976782;28;46410;-69
2022/10/06 06:40:04;;;;;;;5.40;2.63;;;13.10;57.80;;;;;;4972373;28;45960;-69
2022/10/06 06:42:29;;;;;;;7.50;2.93;;;13.20;57.40;;;;;;4974961;28;46537;-69
2022/10/06 06:44:55;;;;;;;7.13;2.57;;;13.30;57.80;;;;;;4973177;28;46404;-69
2022/10/06 06:47:21;;;;;;;6.10;4.50;;;13.50;57.10;;;;;;4976994;28;46309;-69
2022/10/06 06:49:47;;;;;;;10.23;3.50;;;13.70;56.80;;;;;;4972184;28;46693;-69
2022/10/06 06:52:13;;;;;;;4.57;2.77;;;13.80;56.40;;;;;;4969821;28;46773;-69
2022/10/06 06:54:39;;;;;;;6.30;2.53;;;14.00;55.80;;;;;;4969921;28;45816;-69
2022/10/06 06:57:05;;;;;;;3.83;2.50;;;14.20;55.50;;;;;;4974543;28;46461;-70
2022/10/06 06:59:32;;;;;;;4.70;2.13;;;14.30;55.70;;;;;;4976020;28;46429;-69
2022/10/06 07:01:59;;;;;;;3.43;1.80;;;14.50;55.80;;;;;;4975699;28;46461;-69
2022/10/06 07:04:25;;;;;;;3.27;2.07;;;14.60;55.90;;;;;;4974521;28;46514;-69
2022/10/06 07:06:57;;;;;;;5.23;2.17;;;14.80;56.10;;;;;;4972542;28;46527;-69
2022/10/06 07:09:24;;;;;;;7.07;2.27;;;14.80;56.10;;;;;;4971529;28;46755;-70
2022/10/06 07:11:50;;;;;;;6.77;2.73;;;14.90;56.10;;;;;;4979881;28;46503;-69
2022/10/06 07:14:17;;;;;;;4.90;2.37;;;15.10;55.70;;;;;;4976306;28;46422;-69
2022/10/06 07:25:11;;;;;;;3.90;2.33;;;15.20;55.10;;;;;;4973905;28;46433;-69
2022/10/06 07:27:42;;;;;;;5.70;2.60;;;15.10;55.70;;;;;;4982262;28;45975;-69
2022/10/06 07:30:19;;;;;;;5.10;2.53;;;15.30;55.60;;;;;;4973878;28;46821;-70
2022/10/06 07:32:46;;;;;;;5.30;2.53;;;15.50;55.10;;;;;;4976279;28;46422;-69
2022/10/06 07:35:12;;;;;;;5.40;3.10;;;15.80;54.60;;;;;;4979688;28;46316;-69
2022/10/06 07:37:39;;;;;;;10.63;2.83;;;16.00;54.00;;;;;;4977102;28;46605;-69
2022/10/06 07:40:06;;;;;;;6.13;2.43;;;16.00;53.80;;;;;;4975432;28;46566;-68
2022/10/06 07:42:46;;;;;;;5.30;2.70;;;16.00;53.80;;;;;;4977026;28;46444;-69
2022/10/06 07:48:01;;;;;;;5.40;2.90;;;16.00;54.00;;;;;;4980561;28;46454;-69
2022/10/06 07:50:27;;;;;;;10.70;2.90;;;16.00;54.20;;;;;;4980643;28;47015;-69
2022/10/06 07:52:53;;;;;;;5.20;3.10;;;15.90;54.50;;;;;;4972129;28;45951;-69
2022/10/06 07:55:18;;;;;;;9.00;3.43;;;15.90;55.00;;;;;;4981922;28;46373;-67
2022/10/06 07:57:45;;;;;;;12.90;3.70;;;15.90;55.20;;;;;;4977488;28;46408;-66
2022/10/06 08:00:14;;;;;;;7.10;2.93;;;16.20;55.30;;;;;;4978105;28;46457;-67
2022/10/06 08:02:40;;;;;;;9.13;2.87;;;16.60;54.40;;;;;;4978581;28;46433;-67
2022/10/06 08:05:07;;;;;;;6.30;3.00;;;17.00;53.70;;;;;;4974264;28;46658;-66
2022/10/06 08:07:33;;;;;;;9.20;3.00;;;17.10;52.70;;;;;;4975904;28;46446;-67
2022/10/06 08:09:59;;;;;;;6.73;3.20;;;17.20;52.80;;;;;;4974313;28;47574;-66
2022/10/06 08:12:33;;;;;;;7.23;2.83;;;17.30;52.70;;;;;;4973723;28;46559;-67
2022/10/06 08:15:07;;;;;;;11.57;3.60;;;17.40;52.00;;;;;;4972290;28;46448;-66
2022/10/06 08:17:34;;;;;;;4.50;3.03;;;17.40;51.80;;;;;;4972502;28;46415;-67
2022/10/06 08:20:00;;;;;;;6.53;2.60;;;17.40;52.00;;;;;;4976326;28;46304;-67
2022/10/06 08:22:28;;;;;;;5.30;2.93;;;17.30;51.30;;;;;;4975580;28;46363;-67
2022/10/06 08:24:56;;;;;;;9.27;3.37;;;17.30;51.90;;;;;;4981027;28;45868;-65
2022/10/06 08:27:23;;;;;;;6.07;2.87;;;17.40;52.00;;;;;;4975314;28;46347;-67
2022/10/06 08:29:49;;;;;;;7.30;3.37;;;17.40;51.80;;;;;;4978730;28;46198;-67
2022/10/06 08:32:14;;;;;;;7.97;3.57;;;17.40;51.90;;;;;;4976709;28;46304;-66
2022/10/06 08:34:40;;;;;;;8.20;3.30;;;17.50;53.40;;;;;;4968489;28;46420;-68
2022/10/06 08:37:06;;;;;;;6.20;3.00;;;17.60;51.80;;;;;;4980307;28;46454;-67
2022/10/06 08:39:31;;;;;;;9.20;3.30;;;17.70;51.50;;;;;;4981092;28;46997;-67
2022/10/06 08:41:57;;;;;;;4.63;3.03;;;17.80;51.00;;;;;;4972269;28;45963;-67
2022/10/06 08:44:43;;;;;;;12.10;3.50;;;18.00;50.60;;;;;;4974962;28;46489;-67
2022/10/06 08:47:17;;;;;;;6.57;3.03;;;18.10;50.20;;;;;;4975645;28;46577;-67
2022/10/06 08:49:45;;;;;;;5.77;2.93;;;18.00;49.60;;;;;;4972192;28;47116;-67
2022/10/06 08:52:45;;;;;;;8.57;3.60;;;17.90;49.70;;;;;;4973877;28;46489;-67
2022/10/06 08:55:40;;;;;;;6.77;2.77;;;17.70;49.70;;;;;;4973288;28;46517;-67
2022/10/06 08:58:29;;;;;;;5.90;3.07;;;17.90;50.20;;;;;;4975198;28;46477;-67
2022/10/06 09:01:17;;;;;;;6.67;3.43;;;17.90;49.70;;;;;;4968568;28;46612;-66
2022/10/06 09:03:47;;;;;;;7.97;2.90;;;18.00;50.90;;;;;;4972246;28;46426;-67
2022/10/06 09:06:50;;;;;;;11.20;3.33;;;18.20;49.50;;;;;;4973146;28;46524;-67
2022/10/06 09:09:24;;;;;;;6.63;2.70;;;18.30;48.40;;;;;;4975971;28;46410;-67
2022/10/06 09:12:01;;;;;;;7.33;2.90;;;18.50;47.80;;;;;;4974979;28;46509;-67
2022/10/06 09:14:46;;;;;;;11.10;3.40;;;18.50;47.60;;;;;;4975495;28;46275;-66
2022/10/06 09:17:21;;;;;;;8.00;2.87;;;18.70;47.30;;;;;;4979685;28;46386;-67
2022/10/06 09:20:02;;;;;;;6.47;3.10;;;19.00;46.70;;;;;;4975893;28;46310;-67
2022/10/06 09:22:30;;;;;;;4.70;2.80;;;19.30;46.80;;;;;;4974451;28;46217;-67
2022/10/06 09:25:04;;;;;;;4.73;2.90;;;19.70;45.50;;;;;;4975261;28;46380;-67
2022/10/06 09:27:32;;;;;;;6.40;3.00;;;19.90;44.20;;;;;;4979882;28;46327;-67
2022/10/06 09:30:00;;;;;;;8.40;2.60;;;19.90;43.30;;;;;;4977776;28;46422;-67
2022/10/06 09:32:27;;;;;;;5.53;3.00;;;20.30;42.70;;;;;;4974699;28;46112;-67
2022/10/06 09:35:01;;;;;;;6.97;2.90;;;20.70;41.50;;;;;;4975678;28;46558;-67
2022/10/06 09:37:27;;;;;;;7.83;3.00;;;20.80;41.20;;;;;;4978178;28;46234;-67
2022/10/06 09:39:53;;;;;;;8.73;3.50;;;21.10;40.90;;;;;;4974324;28;46614;-67
2022/10/06 09:42:21;;;;;;;6.53;3.20;;;21.50;39.70;;;;;;4978001;28;49029;-66
2022/10/06 09:44:50;;;;;;;7.60;3.30;;;21.60;39.00;;;;;;4973820;28;46314;-67
2022/10/06 09:47:27;;;;;;;5.40;3.13;;;21.90;38.40;;;;;;4977419;28;46470;-67
2022/10/06 09:50:11;;;;;;;10.67;3.27;;;21.80;38.10;;;;;;4972282;28;46359;-66
2022/10/06 09:52:38;;;;;;;8.73;3.20;;;22.10;38.00;;;;;;4978303;28;47845;-67
2022/10/06 09:55:11;;;;;;;7.10;2.97;;;22.20;37.70;;;;;;4974688;28;45775;-66
2022/10/06 09:57:38;;;;;;;4.60;2.80;;;21.80;36.80;;;;;;4973944;28;46471;-66
2022/10/06 10:00:25;;;;;;;6.60;3.20;;;21.50;38.10;;;;;;4974133;28;46205;-66
2022/10/06 10:03:06;;;;;;;8.80;2.77;;;21.50;38.70;;;;;;4972355;28;47154;-66
2022/10/06 10:05:33;;;;;;;6.47;3.13;;;21.60;37.80;;;;;;4972786;28;45853;-66
2022/10/06 10:08:13;;;;;;;8.77;3.00;;;21.80;37.70;;;;;;4973107;28;45811;-66
2022/10/06 10:10:39;;;;;;;5.90;2.80;;;21.90;37.40;;;;;;4973421;28;46438;-66
2022/10/06 10:13:25;;;;;;;5.27;2.90;;;21.90;37.30;;;;;;4972174;28;46379;-67
2022/10/06 10:16:00;;;;;;;4.87;2.60;;;21.80;35.70;;;;;;4969170;28;46399;-67
2022/10/06 10:18:29;;;;;;;7.23;3.30;;;21.90;35.80;;;;;;4977383;28;46474;-67
2022/10/06 10:21:04;;;;;;;5.43;2.90;;;21.80;35.70;;;;;;4975207;28;46376;-67
2022/10/06 10:23:54;;;;;;;6.27;2.90;;;21.60;35.50;;;;;;4971191;28;46019;-67
2022/10/06 10:26:52;;;;;;;6.30;2.70;;;21.50;36.10;;;;;;4974282;28;46499;-67
2022/10/06 10:29:47;;;;;;;8.20;3.00;;;21.30;35.80;;;;;;4971441;28;46510;-67
2022/10/06 10:32:34;;;;;;;8.20;3.17;;;20.80;36.40;;;;;;4972047;28;46546;-66
2022/10/06 10:35:17;;;;;;;11.90;3.00;;;20.40;37.70;;;;;;4972744;28;46635;-66
2022/10/06 10:37:50;;;;;;;7.77;3.63;;;20.00;38.50;;;;;;4971692;28;46233;-66
2022/10/06 10:40:36;;;;;;;8.80;3.53;;;19.80;39.40;;;;;;4972138;28;46429;-66
2022/10/06 10:43:11;;;;;;;6.10;3.17;;;19.90;38.90;;;;;;4977684;28;46488;-67
2022/10/06 10:45:53;;;;;;;9.80;3.47;;;19.90;38.90;;;;;;4973336;28;48302;-66
2022/10/06 10:48:48;;;;;;;9.07;3.17;;;19.50;39.20;;;;;;4971183;28;46662;-66
2022/10/06 10:51:33;;;;;;;8.30;4.20;;;19.40;40.10;;;;;;4973577;28;46414;-66
2022/10/06 10:54:11;;;;;;;10.33;3.00;;;19.50;40.30;;;;;;4972917;28;46430;-66
2022/10/06 10:56:36;;;;;;;8.00;2.90;;;19.50;40.30;;;;;;4978243;28;47196;-66
2022/10/06 10:59:21;;;;;;;10.63;3.10;;;19.50;40.40;;;;;;4975334;28;46340;-66
2022/10/06 11:02:01;;;;;;;9.63;3.77;;;19.70;40.00;;;;;;4976506;28;46418;-66
2022/10/06 11:04:27;;;;;;;20.13;3.57;;;19.70;40.00;;;;;;4969868;28;46023;-66
2022/10/06 11:07:10;;;;;;;7.33;3.10;;;19.80;39.70;;;;;;4971762;28;47042;-66
2022/10/06 11:09:43;;;;;;;6.70;2.90;;;19.90;39.70;;;;;;4971795;28;46712;-66
2022/10/06 11:12:20;;;;;;;18.13;3.73;;;20.20;38.90;;;;;;4973550;28;46470;-70
2022/10/06 11:14:58;;;;;;;7.40;3.10;;;20.60;38.50;;;;;;4971476;28;46464;-66
2022/10/06 11:17:43;;;;;;;10.53;2.90;;;20.70;38.00;;;;;;4978024;28;46466;-68
2022/10/06 11:20:35;;;;;;;6.13;2.90;;;21.00;36.90;;;;;;4971142;28;46468;-69
2022/10/06 11:23:22;;;;;;;4.57;2.50;;;21.00;36.60;;;;;;4973924;28;45887;-69
2022/10/06 11:26:16;;;;;;;5.53;2.93;;;20.90;36.20;;;;;;4972904;28;45940;-69
2022/10/06 11:29:14;;;;;;;4.83;2.53;;;21.00;35.80;;;;;;4976858;28;46578;-63
2022/10/06 11:31:53;;;;;;;7.80;3.80;;;20.80;35.70;;;;;;4981277;28;46533;-69
2022/10/06 11:34:19;;;;;;;11.83;3.20;;;20.80;36.20;;;;;;4969117;28;46382;-70
2022/10/06 11:36:45;;;;;;;7.57;3.10;;;21.10;36.10;;;;;;4977039;28;46446;-69
2022/10/06 11:39:24;;;;;;;10.50;3.73;;;21.20;36.30;;;;;;4974120;28;46531;-69
2022/10/06 11:42:16;;;;;;;6.27;3.30;;;21.20;35.60;;;;;;4974077;28;46625;-71
2022/10/06 11:44:46;;;;;;;8.03;3.50;;;21.20;36.10;;;;;;4971718;28;46356;-69
2022/10/06 11:47:32;;;;;;;5.20;3.13;;;21.20;36.70;;;;;;4972478;28;46508;-70
2022/10/06 11:49:58;;;;;;;11.33;3.80;;;21.30;36.70;;;;;;4974770;28;46296;-69
2022/10/06 11:52:23;;;;;;;11.47;3.50;;;21.30;36.60;;;;;;4975224;28;46622;-68
2022/10/06 11:54:52;;;;;;;8.63;3.60;;;21.30;36.40;;;;;;4975569;28;45837;-64
2022/10/06 11:57:26;;;;;;;10.93;2.83;;;21.30;36.50;;;;;;4972865;28;46467;-65
2022/10/06 12:00:01;;;;;;;5.40;3.30;;;21.20;36.50;;;;;;4977023;28;47036;-65
2022/10/06 12:02:32;;;;;;;8.27;2.90;;;21.10;36.60;;;;;;4975298;28;46489;-65
2022/10/06 12:05:13;;;;;;;10.53;3.43;;;20.90;36.70;;;;;;4977130;28;46468;-66
2022/10/06 12:07:54;;;;;;;8.70;3.60;;;21.10;36.60;;;;;;4981183;28;46521;-66
2022/10/06 12:10:29;;;;;;;7.77;3.53;;;21.10;36.70;;;;;;4979155;28;47069;-65
2022/10/06 12:13:19;;;;;;;8.73;3.73;;;20.90;37.00;;;;;;4972752;28;46386;-65
2022/10/06 12:15:51;;;;;;;10.77;3.40;;;20.70;37.10;;;;;;4975713;28;46519;-65
2022/10/06 12:18:36;;;;;;;6.53;3.30;;;20.70;37.50;;;;;;4976401;28;45987;-67
2022/10/06 12:21:23;;;;;;;6.20;3.33;;;20.90;37.30;;;;;;4973858;28;46553;-64
2022/10/06 12:24:02;;;;;;;6.13;3.70;;;21.10;37.00;;;;;;4976606;28;46471;-64
2022/10/06 12:26:42;;;;;;;7.50;3.23;;;21.40;36.90;;;;;;4974200;28;47149;-65
2022/10/06 12:29:36;;;;;;;9.63;4.00;;;21.50;36.50;;;;;;4973177;28;46784;-66
2022/10/06 12:32:29;;;;;;;13.70;5.20;;;21.30;36.60;;;;;;4971177;28;46473;-66
2022/10/06 12:35:23;;;;;;;12.27;4.20;;;21.30;37.00;;;;;;4976439;28;46603;-67
2022/10/06 12:37:51;;;;;;;6.83;3.73;;;21.40;36.90;;;;;;4978297;28;46385;-66
2022/10/06 12:40:43;;;;;;;11.43;4.10;;;21.50;36.70;;;;;;4976278;28;46407;-66
2022/10/06 12:43:20;;;;;;;15.57;5.07;;;21.40;36.70;;;;;;4973948;28;46496;-66
2022/10/06 12:45:45;;;;;;;6.63;3.70;;;21.30;37.00;;;;;;4974986;28;46474;-66
2022/10/06 12:48:30;;;;;;;12.37;3.90;;;20.80;38.20;;;;;;4974104;28;46444;-67
2022/10/06 12:51:11;;;;;;;9.00;3.90;;;20.60;39.10;;;;;;4973498;28;46295;-66
2022/10/06 12:53:55;;;;;;;6.30;3.53;;;20.30;40.00;;;;;;4974277;28;47047;-67
2022/10/06 12:56:33;;;;;;;13.07;4.17;;;20.20;40.90;;;;;;4974794;28;46696;-66
2022/10/06 12:59:26;;;;;;;16.40;5.00;;;20.10;41.10;;;;;;4974231;28;46411;-68
2022/10/06 13:02:01;;;;;;;12.27;4.43;;;20.00;41.40;;;;;;4975617;28;46498;-68
2022/10/06 13:04:35;;;;;;;11.10;3.97;;;20.10;41.50;;;;;;4975394;28;46430;-65
2022/10/06 13:07:08;;;;;;;9.23;3.70;;;20.10;41.40;;;;;;4969369;28;46387;-66
2022/10/06 13:09:33;;;;;;;9.73;4.00;;;20.20;41.40;;;;;;4976538;28;45880;-66
2022/10/06 13:12:18;;;;;;;7.10;3.90;;;20.30;41.40;;;;;;4972290;28;46331;-67
2022/10/06 13:14:44;;;;;;;7.70;4.03;;;20.40;41.20;;;;;;4973401;28;47263;-66
2022/10/06 13:17:10;;;;;;;7.30;3.20;;;20.30;41.20;;;;;;4976073;28;46651;-66
2022/10/06 13:19:36;;;;;;;10.07;4.00;;;20.20;41.50;;;;;;4976246;28;46405;-68